Time;durP1;ratioP1;P1;durP2;ratioP2;P2;SDS_P1;SDS_P2;PMS_P1;PMS_P2;Temp;Humidity;BMP_temperature;BMP_pressure;BME280_temperature;BME280_humidity;BME280_pressure;Samples;Min_cycle;Max_cycle;Signal;HPM_P1;HPM_P2
2022/01/17 00:00:22;;;;;;;32.40;17.90;;;;;;;;;;5031624;28;20857;-54
2022/01/17 00:02:50;;;;;;;28.67;16.80;;;;;;;;;;5031636;28;20487;-54
2022/01/17 00:05:16;;;;;;;22.03;13.00;;;;;;;;;;5031250;28;20567;-55
2022/01/17 00:07:43;;;;;;;31.17;17.47;;;;;;;;;;5030263;28;20412;-57
2022/01/17 00:10:09;;;;;;;26.33;14.83;;;;;;;;;;5031554;28;20917;-54
2022/01/17 00:12:38;;;;;;;28.60;15.40;;;;;;;;;;5031373;28;20954;-57
2022/01/17 00:15:13;;;;;;;29.13;17.07;;;;;;;;;;5031926;28;20420;-60
2022/01/17 00:17:42;;;;;;;26.60;16.50;;;;;;;;;;5031237;28;20457;-59
2022/01/17 00:20:10;;;;;;;27.27;15.67;;;;;;;;;;5029978;28;20443;-65
2022/01/17 00:22:38;;;;;;;32.93;18.17;;;;;;;;;;5031087;28;20499;-58
2022/01/17 00:25:05;;;;;;;31.23;16.87;;;;;;;;;;5031344;28;20468;-61
2022/01/17 00:27:31;;;;;;;30.27;16.37;;;;;;;;;;5031468;28;20478;-67
2022/01/17 00:29:57;;;;;;;29.20;16.60;;;;;;;;;;5031125;28;20443;-60
2022/01/17 00:32:23;;;;;;;28.60;16.47;;;;;;;;;;5031109;28;21008;-59
2022/01/17 00:34:49;;;;;;;26.30;14.40;;;;;;;;;;5031414;28;20901;-55
2022/01/17 00:37:15;;;;;;;29.30;17.67;;;;;;;;;;5032109;28;20404;-53
2022/01/17 00:39:42;;;;;;;23.27;13.70;;;;;;;;;;5035028;28;20749;-54
2022/01/17 00:42:08;;;;;;;29.00;17.23;;;;;;;;;;5034776;28;20443;-53
2022/01/17 00:44:34;;;;;;;24.50;13.90;;;;;;;;;;5034936;28;20483;-54
2022/01/17 00:47:00;;;;;;;23.10;13.77;;;;;;;;;;5033583;28;20451;-52
2022/01/17 00:49:26;;;;;;;24.17;13.93;;;;;;;;;;5034663;28;20493;-52
2022/01/17 00:51:53;;;;;;;26.90;16.07;;;;;;;;;;5034699;28;20427;-52
2022/01/17 00:54:19;;;;;;;26.07;16.80;;;;;;;;;;5034363;28;20427;-54
2022/01/17 00:56:45;;;;;;;18.63;12.33;;;;;;;;;;5034428;28;20412;-52
2022/01/17 00:59:11;;;;;;;27.73;15.50;;;;;;;;;;5034531;28;20428;-52
2022/01/17 01:01:38;;;;;;;25.83;13.60;;;;;;;;;;5034494;28;20401;-53
2022/01/17 01:04:04;;;;;;;25.23;15.83;;;;;;;;;;5034647;28;20538;-53
2022/01/17 01:06:30;;;;;;;18.20;10.23;;;;;;;;;;5034505;28;20404;-52
2022/01/17 01:08:56;;;;;;;22.50;15.00;;;;;;;;;;5034228;28;20467;-52
2022/01/17 01:11:22;;;;;;;26.40;15.43;;;;;;;;;;5034319;28;20404;-53
2022/01/17 01:13:48;;;;;;;27.20;17.00;;;;;;;;;;5034737;28;20471;-52
2022/01/17 01:29:23;;;;;;;19.17;11.97;;;;;;;;;;5034520;28;20499;-55
2022/01/17 01:31:54;;;;;;;26.77;16.00;;;;;;;;;;5034457;28;20443;-53
2022/01/17 01:34:28;;;;;;;28.70;15.37;;;;;;;;;;5034675;28;20396;-52
2022/01/17 01:36:54;;;;;;;22.63;13.20;;;;;;;;;;5034609;28;21054;-53
2022/01/17 01:39:24;;;;;;;21.77;13.07;;;;;;;;;;5034270;28;20908;-53
2022/01/17 01:41:51;;;;;;;24.03;13.93;;;;;;;;;;5034185;28;20910;-52
2022/01/17 01:44:22;;;;;;;22.80;15.27;;;;;;;;;;5034068;28;20534;-51
2022/01/17 01:46:49;;;;;;;21.23;12.37;;;;;;;;;;5034364;28;20505;-52
2022/01/17 01:49:15;;;;;;;20.47;12.30;;;;;;;;;;5033725;28;20412;-53
2022/01/17 01:51:42;;;;;;;17.53;12.40;;;;;;;;;;5033946;28;20415;-51
2022/01/17 01:54:08;;;;;;;16.67;11.50;;;;;;;;;;5033843;28;20499;-54
2022/01/17 01:56:38;;;;;;;22.23;13.70;;;;;;;;;;5033525;28;20413;-54
2022/01/17 01:59:04;;;;;;;23.60;13.50;;;;;;;;;;5034034;28;20485;-54
2022/01/17 02:01:30;;;;;;;27.87;15.70;;;;;;;;;;5034058;28;20415;-53
2022/01/17 02:03:57;;;;;;;24.80;14.93;;;;;;;;;;5033532;28;20475;-51
2022/01/17 02:06:23;;;;;;;23.90;14.80;;;;;;;;;;5033811;28;20415;-52
2022/01/17 02:08:49;;;;;;;25.60;16.57;;;;;;;;;;5033623;28;20443;-51
2022/01/17 02:11:15;;;;;;;29.60;16.67;;;;;;;;;;5033712;28;20404;-53
2022/01/17 02:13:41;;;;;;;23.20;14.83;;;;;;;;;;5033809;28;20845;-51
2022/01/17 02:16:14;;;;;;;28.37;16.20;;;;;;;;;;5033733;28;20405;-53
2022/01/17 02:18:41;;;;;;;24.27;14.00;;;;;;;;;;5033514;28;20522;-51
2022/01/17 02:21:17;;;;;;;19.70;11.20;;;;;;;;;;5033333;28;20488;-53
2022/01/17 02:23:51;;;;;;;21.97;13.77;;;;;;;;;;5033544;28;20541;-52
2022/01/17 02:26:18;;;;;;;25.13;14.93;;;;;;;;;;5033328;28;20456;-54
2022/01/17 02:28:45;;;;;;;24.60;12.80;;;;;;;;;;5033254;28;20401;-62
2022/01/17 02:31:11;;;;;;;21.87;14.10;;;;;;;;;;5033250;28;20419;-51
2022/01/17 02:33:37;;;;;;;19.43;12.33;;;;;;;;;;5033213;28;20503;-53
2022/01/17 02:36:04;;;;;;;24.67;13.00;;;;;;;;;;5033389;28;20470;-52
2022/01/17 02:38:30;;;;;;;25.77;16.10;;;;;;;;;;5033352;28;20405;-53
2022/01/17 02:40:56;;;;;;;25.73;15.20;;;;;;;;;;5033190;28;20417;-54
2022/01/17 02:43:24;;;;;;;24.73;15.73;;;;;;;;;;5033009;28;20558;-52
2022/01/17 02:48:19;;;;;;;23.30;14.80;;;;;;;;;;5033079;28;20855;-54
2022/01/17 02:50:45;;;;;;;23.83;14.10;;;;;;;;;;5032970;28;20503;-52
2022/01/17 02:53:12;;;;;;;18.77;13.20;;;;;;;;;;5033011;28;20405;-53
2022/01/17 02:55:39;;;;;;;23.70;12.30;;;;;;;;;;5032798;28;21128;-52
2022/01/17 02:58:05;;;;;;;19.23;12.53;;;;;;;;;;5032795;28;20400;-52
2022/01/17 03:00:31;;;;;;;20.13;13.43;;;;;;;;;;5032208;28;21072;-51
2022/01/17 03:02:58;;;;;;;23.03;13.00;;;;;;;;;;5031252;28;20503;-59
2022/01/17 03:05:24;;;;;;;14.60;9.67;;;;;;;;;;5032627;28;20476;-52
2022/01/17 03:07:50;;;;;;;22.27;14.30;;;;;;;;;;5032628;28;20404;-56
2022/01/17 03:13:05;;;;;;;15.10;10.67;;;;;;;;;;5032914;28;20408;-57
2022/01/17 03:15:31;;;;;;;22.40;12.50;;;;;;;;;;5032567;28;20984;-54
2022/01/17 03:17:57;;;;;;;23.67;13.60;;;;;;;;;;5031144;28;20431;-52
2022/01/17 03:20:23;;;;;;;19.53;12.43;;;;;;;;;;5032407;28;20416;-52
2022/01/17 03:22:49;;;;;;;19.63;12.80;;;;;;;;;;5032185;28;20522;-53
2022/01/17 03:25:15;;;;;;;16.70;11.00;;;;;;;;;;5032219;28;20563;-52
2022/01/17 03:27:41;;;;;;;17.53;12.20;;;;;;;;;;5032357;28;20406;-58
2022/01/17 03:30:07;;;;;;;15.53;11.20;;;;;;;;;;5032352;28;20870;-51
2022/01/17 03:32:33;;;;;;;14.10;10.10;;;;;;;;;;5032661;28;20419;-52
2022/01/17 03:35:00;;;;;;;18.63;12.50;;;;;;;;;;5032444;28;20419;-52
2022/01/17 03:37:26;;;;;;;17.67;11.47;;;;;;;;;;5032462;28;20408;-57
2022/01/17 03:39:52;;;;;;;13.80;8.70;;;;;;;;;;5032373;28;20507;-52
2022/01/17 03:42:18;;;;;;;16.40;11.77;;;;;;;;;;5032343;28;20500;-54
2022/01/17 03:44:45;;;;;;;16.07;10.23;;;;;;;;;;5032169;28;21075;-53
2022/01/17 03:47:11;;;;;;;10.97;8.57;;;;;;;;;;5032166;28;20404;-54
2022/01/17 03:49:37;;;;;;;16.33;9.47;;;;;;;;;;5032147;28;20496;-54
2022/01/17 03:52:04;;;;;;;15.80;11.40;;;;;;;;;;5032285;28;20405;-53
2022/01/17 03:54:31;;;;;;;15.40;8.87;;;;;;;;;;5032312;28;20400;-54
2022/01/17 03:56:57;;;;;;;14.27;10.50;;;;;;;;;;5032315;28;20420;-60
2022/01/17 03:59:23;;;;;;;14.50;11.00;;;;;;;;;;5032245;28;20451;-54
2022/01/17 04:01:49;;;;;;;13.40;9.80;;;;;;;;;;5032025;28;20396;-53
2022/01/17 04:04:15;;;;;;;16.07;10.90;;;;;;;;;;5031901;28;20475;-56
2022/01/17 04:06:41;;;;;;;15.47;10.10;;;;;;;;;;5032009;28;20446;-55
2022/01/17 04:09:07;;;;;;;12.20;9.80;;;;;;;;;;5032066;28;20421;-50
2022/01/17 04:11:33;;;;;;;14.37;9.53;;;;;;;;;;5032365;28;20408;-63
2022/01/17 04:13:59;;;;;;;11.67;9.37;;;;;;;;;;5036050;28;20424;-64
2022/01/17 04:16:25;;;;;;;14.50;9.47;;;;;;;;;;5035941;28;20412;-59
2022/01/17 04:18:53;;;;;;;13.23;10.07;;;;;;;;;;5036343;28;20416;-60
2022/01/17 04:21:19;;;;;;;15.80;11.23;;;;;;;;;;5035906;28;20486;-62
2022/01/17 04:23:45;;;;;;;8.53;7.53;;;;;;;;;;5035707;28;20472;-65
2022/01/17 04:26:11;;;;;;;10.67;8.03;;;;;;;;;;5035678;28;20411;-51
2022/01/17 04:28:37;;;;;;;10.47;7.53;;;;;;;;;;5035691;28;20446;-51
2022/01/17 04:31:03;;;;;;;13.70;9.67;;;;;;;;;;5035867;28;20404;-52
2022/01/17 04:33:29;;;;;;;18.70;10.40;;;;;;;;;;5035516;28;20413;-52
2022/01/17 04:35:55;;;;;;;13.80;9.20;;;;;;;;;;5034469;28;20416;-62
2022/01/17 04:38:21;;;;;;;13.40;9.03;;;;;;;;;;5035471;28;20421;-53
2022/01/17 04:40:49;;;;;;;10.10;7.73;;;;;;;;;;5035525;28;20503;-64
2022/01/17 04:43:22;;;;;;;12.47;8.40;;;;;;;;;;5035042;28;20409;-58
2022/01/17 04:45:49;;;;;;;12.67;8.57;;;;;;;;;;5035197;28;20420;-63
2022/01/17 04:48:15;;;;;;;9.37;8.00;;;;;;;;;;5035118;28;20404;-60
2022/01/17 04:50:41;;;;;;;10.40;8.20;;;;;;;;;;5035137;28;20462;-63
2022/01/17 04:53:08;;;;;;;11.73;7.70;;;;;;;;;;5035401;28;20752;-58
2022/01/17 04:55:36;;;;;;;8.93;7.20;;;;;;;;;;5035061;28;20901;-53
2022/01/17 04:58:02;;;;;;;10.87;7.10;;;;;;;;;;5035419;28;20433;-53
2022/01/17 05:00:28;;;;;;;13.60;9.40;;;;;;;;;;5034939;28;20419;-52
2022/01/17 05:02:54;;;;;;;9.17;7.10;;;;;;;;;;5034846;28;20393;-54
2022/01/17 05:05:20;;;;;;;15.70;8.60;;;;;;;;;;5034937;28;20472;-52
2022/01/17 05:07:46;;;;;;;12.57;9.03;;;;;;;;;;5034680;28;20495;-54
2022/01/17 05:10:14;;;;;;;9.90;7.70;;;;;;;;;;5049911;28;20829;-53
2022/01/17 05:12:41;;;;;;;13.73;8.90;;;;;;;;;;5034964;28;20408;-53
2022/01/17 05:15:11;;;;;;;12.10;8.30;;;;;;;;;;5034668;28;20915;-53
2022/01/17 05:17:43;;;;;;;10.57;7.97;;;;;;;;;;5034690;28;20401;-51
2022/01/17 05:20:09;;;;;;;14.00;8.33;;;;;;;;;;5034757;28;20411;-53
2022/01/17 05:22:36;;;;;;;11.20;8.37;;;;;;;;;;5049607;28;20472;-52
2022/01/17 05:25:05;;;;;;;10.20;6.70;;;;;;;;;;5033758;28;20828;-53
2022/01/17 05:27:31;;;;;;;6.40;5.70;;;;;;;;;;5034423;28;20444;-53
2022/01/17 05:29:57;;;;;;;9.37;6.80;;;;;;;;;;5034204;28;20443;-52
2022/01/17 05:32:23;;;;;;;9.10;6.47;;;;;;;;;;5034137;28;20924;-53
2022/01/17 05:34:49;;;;;;;6.07;5.57;;;;;;;;;;5034470;28;20416;-54
2022/01/17 05:37:15;;;;;;;8.13;5.00;;;;;;;;;;5034078;28;20404;-51
2022/01/17 05:39:45;;;;;;;11.00;6.33;;;;;;;;;;5033998;28;20431;-58
2022/01/17 05:42:17;;;;;;;7.83;4.40;;;;;;;;;;5034138;28;20412;-56
2022/01/17 05:44:43;;;;;;;6.40;5.03;;;;;;;;;;5034244;28;20476;-53
2022/01/17 05:47:09;;;;;;;5.40;4.70;;;;;;;;;;5034125;28;20412;-52
2022/01/17 05:49:35;;;;;;;11.07;5.70;;;;;;;;;;5033990;28;20452;-51
2022/01/17 05:52:01;;;;;;;6.87;5.13;;;;;;;;;;5034381;28;20493;-55
2022/01/17 05:54:27;;;;;;;12.43;4.43;;;;;;;;;;5049140;28;20420;-52
2022/01/17 05:56:53;;;;;;;6.43;4.73;;;;;;;;;;5033943;28;20413;-55
2022/01/17 05:59:19;;;;;;;5.87;4.40;;;;;;;;;;5033853;28;20420;-54
2022/01/17 06:01:45;;;;;;;6.70;4.60;;;;;;;;;;5033701;28;20417;-53
2022/01/17 06:04:11;;;;;;;4.10;3.70;;;;;;;;;;5033558;28;20472;-57
2022/01/17 06:06:37;;;;;;;4.80;4.40;;;;;;;;;;5034007;28;20408;-52
2022/01/17 06:09:03;;;;;;;5.63;4.00;;;;;;;;;;5033924;28;20423;-55
2022/01/17 06:11:30;;;;;;;3.57;3.23;;;;;;;;;;5033683;28;20466;-56
2022/01/17 06:13:59;;;;;;;3.43;3.23;;;;;;;;;;5033160;28;20413;-54
2022/01/17 06:16:25;;;;;;;4.77;3.87;;;;;;;;;;5033461;28;20408;-57
2022/01/17 06:18:51;;;;;;;6.60;3.40;;;;;;;;;;5033414;28;20477;-56
2022/01/17 06:21:17;;;;;;;3.80;3.60;;;;;;;;;;5033172;28;20452;-53
2022/01/17 06:23:43;;;;;;;4.10;3.73;;;;;;;;;;5033336;28;20487;-52
2022/01/17 06:26:09;;;;;;;6.57;3.57;;;;;;;;;;5032999;28;20956;-51
2022/01/17 06:28:35;;;;;;;3.77;3.47;;;;;;;;;;5033569;28;20780;-51
2022/01/17 06:31:01;;;;;;;4.10;3.70;;;;;;;;;;5033333;28;20408;-53
2022/01/17 06:33:27;;;;;;;7.43;4.17;;;;;;;;;;5033075;28;20412;-53
2022/01/17 06:35:53;;;;;;;5.70;3.63;;;;;;;;;;5032093;28;20749;-52
2022/01/17 06:38:19;;;;;;;4.40;3.67;;;;;;;;;;5033090;28;20451;-58
2022/01/17 06:40:45;;;;;;;6.00;3.50;;;;;;;;;;5032650;28;20409;-52
2022/01/17 06:43:11;;;;;;;6.03;4.00;;;;;;;;;;5031420;28;20416;-52
2022/01/17 06:45:38;;;;;;;10.47;3.27;;;;;;;;;;5032627;28;20448;-53
2022/01/17 06:48:06;;;;;;;4.07;3.73;;;;;;;;;;5033110;28;20466;-56
2022/01/17 06:50:32;;;;;;;3.27;3.10;;;;;;;;;;5048069;28;20785;-53
2022/01/17 06:52:58;;;;;;;4.47;4.07;;;;;;;;;;5032687;28;20467;-51
2022/01/17 06:55:24;;;;;;;7.07;4.10;;;;;;;;;;5032444;28;20849;-55
2022/01/17 06:57:50;;;;;;;3.50;3.20;;;;;;;;;;5032610;28;20579;-53
2022/01/17 07:00:16;;;;;;;9.40;3.47;;;;;;;;;;5031525;28;20499;-56
2022/01/17 07:02:42;;;;;;;6.10;2.83;;;;;;;;;;5031670;28;20424;-55
2022/01/17 07:05:08;;;;;;;4.03;3.40;;;;;;;;;;5046666;28;20511;-54
2022/01/17 07:07:34;;;;;;;3.67;3.33;;;;;;;;;;5031740;28;20397;-58
2022/01/17 07:10:00;;;;;;;5.17;3.50;;;;;;;;;;5031644;28;20419;-56
2022/01/17 07:12:26;;;;;;;3.40;3.20;;;;;;;;;;5031646;28;20404;-58
2022/01/17 07:14:53;;;;;;;3.60;3.40;;;;;;;;;;5031555;28;20412;-54
2022/01/17 07:17:20;;;;;;;8.10;3.57;;;;;;;;;;5031512;28;20956;-53
2022/01/17 07:19:45;;;;;;;4.00;3.60;;;;;;;;;;5031550;28;20963;-54
2022/01/17 07:22:12;;;;;;;8.10;3.70;;;;;;;;;;5031371;28;20460;-59
2022/01/17 07:24:38;;;;;;;6.93;3.20;;;;;;;;;;5046915;28;20464;-57
2022/01/17 07:27:04;;;;;;;9.47;3.57;;;;;;;;;;5031742;28;20415;-53
2022/01/17 07:29:30;;;;;;;4.93;3.87;;;;;;;;;;5031145;28;20520;-51
2022/01/17 07:31:56;;;;;;;7.13;3.80;;;;;;;;;;5031828;28;20476;-61
2022/01/17 07:34:23;;;;;;;9.07;4.10;;;;;;;;;;5031985;28;20420;-53
2022/01/17 07:36:49;;;;;;;3.73;3.40;;;;;;;;;;5032095;28;20409;-53
2022/01/17 07:39:15;;;;;;;10.87;4.07;;;;;;;;;;5032211;28;20747;-54
2022/01/17 07:41:41;;;;;;;8.37;3.90;;;;;;;;;;5047299;28;20421;-54
2022/01/17 07:44:18;;;;;;;7.80;3.90;;;;;;;;;;5031804;28;20517;-58
2022/01/17 07:46:55;;;;;;;8.23;3.40;;;;;;;;;;5031331;28;20526;-53
2022/01/17 07:49:21;;;;;;;10.40;4.77;;;;;;;;;;5047275;28;20416;-55
2022/01/17 07:51:49;;;;;;;16.93;4.33;;;;;;;;;;5032042;28;20409;-54
2022/01/17 07:54:16;;;;;;;5.17;3.90;;;;;;;;;;5031925;28;20470;-57
2022/01/17 07:56:42;;;;;;;9.63;4.53;;;;;;;;;;5031706;28;20462;-55
2022/01/17 07:59:09;;;;;;;4.70;3.63;;;;;;;;;;5029052;28;20413;-52
2022/01/17 08:01:37;;;;;;;6.70;3.40;;;;;;;;;;5031710;28;20483;-53
2022/01/17 08:04:03;;;;;;;11.37;3.73;;;;;;;;;;5031351;28;20579;-53
2022/01/17 08:06:29;;;;;;;5.77;4.00;;;;;;;;;;5031147;28;20511;-51
2022/01/17 08:08:57;;;;;;;3.10;2.90;;;;;;;;;;5031446;28;20777;-52
2022/01/17 08:11:23;;;;;;;7.93;3.80;;;;;;;;;;5031604;28;20751;-52
2022/01/17 08:13:49;;;;;;;4.37;3.67;;;;;;;;;;5031610;28;20404;-54
2022/01/17 08:16:15;;;;;;;6.17;3.87;;;;;;;;;;5031305;28;20420;-52
2022/01/17 08:18:44;;;;;;;3.90;3.53;;;;;;;;;;5031701;28;20452;-53
2022/01/17 08:21:10;;;;;;;7.40;2.80;;;;;;;;;;5031165;28;20474;-58
2022/01/17 08:23:37;;;;;;;6.73;3.63;;;;;;;;;;5031398;28;20459;-56
2022/01/17 08:26:03;;;;;;;5.83;3.80;;;;;;;;;;5031941;28;20428;-57
2022/01/17 08:28:29;;;;;;;4.60;3.17;;;;;;;;;;5031752;28;20512;-59
2022/01/17 08:30:55;;;;;;;6.10;3.50;;;;;;;;;;5031319;28;20483;-56
2022/01/17 08:33:22;;;;;;;6.93;3.50;;;;;;;;;;5031745;28;20405;-55
2022/01/17 08:35:48;;;;;;;7.43;3.70;;;;;;;;;;5031738;28;20424;-54
2022/01/17 08:38:15;;;;;;;4.13;3.60;;;;;;;;;;5031638;28;20439;-54
2022/01/17 08:40:41;;;;;;;5.50;3.20;;;;;;;;;;5031661;28;20416;-55
2022/01/17 08:43:07;;;;;;;7.67;3.77;;;;;;;;;;5031606;28;20404;-56
2022/01/17 08:45:33;;;;;;;4.30;3.90;;;;;;;;;;5031505;28;20567;-60
2022/01/17 08:48:00;;;;;;;8.03;4.20;;;;;;;;;;5042899;28;20455;-53
2022/01/17 08:50:27;;;;;;;6.70;3.87;;;;;;;;;;5031219;28;20423;-52
2022/01/17 08:52:53;;;;;;;6.43;3.70;;;;;;;;;;5030843;28;20444;-53
2022/01/17 08:55:21;;;;;;;4.50;3.17;;;;;;;;;;5030845;28;20769;-53
2022/01/17 08:57:47;;;;;;;3.83;3.33;;;;;;;;;;5030364;28;20396;-52
2022/01/17 09:00:15;;;;;;;5.30;3.50;;;;;;;;;;5031561;28;20848;-54
2022/01/17 09:02:42;;;;;;;13.53;3.60;;;;;;;;;;5032471;28;20408;-54
2022/01/17 09:05:08;;;;;;;4.60;3.73;;;;;;;;;;5032236;28;20487;-54
2022/01/17 09:07:35;;;;;;;7.10;3.20;;;;;;;;;;5032995;28;20928;-58
2022/01/17 09:10:01;;;;;;;3.13;3.03;;;;;;;;;;5032732;28;20424;-54
2022/01/17 09:12:27;;;;;;;6.63;3.40;;;;;;;;;;5032403;28;20405;-58
2022/01/17 09:14:53;;;;;;;5.50;3.10;;;;;;;;;;5032766;28;20770;-54
2022/01/17 09:17:19;;;;;;;4.40;3.70;;;;;;;;;;5033420;28;20467;-52
2022/01/17 09:19:46;;;;;;;4.77;3.80;;;;;;;;;;5032838;28;20474;-61
2022/01/17 09:22:12;;;;;;;4.07;3.70;;;;;;;;;;5031708;28;20463;-55
2022/01/17 09:24:39;;;;;;;4.00;3.53;;;;;;;;;;5032315;28;20468;-55
2022/01/17 09:27:06;;;;;;;4.40;3.40;;;;;;;;;;5033099;28;20738;-56
2022/01/17 09:29:33;;;;;;;3.50;3.20;;;;;;;;;;5032580;28;20416;-57
2022/01/17 09:31:59;;;;;;;3.27;2.97;;;;;;;;;;5032506;28;20416;-54
2022/01/17 09:34:26;;;;;;;6.50;3.53;;;;;;;;;;5032355;28;20427;-56
2022/01/17 09:36:52;;;;;;;3.27;3.07;;;;;;;;;;5032734;28;20542;-59
2022/01/17 09:39:19;;;;;;;7.10;3.33;;;;;;;;;;5031902;28;20820;-54
2022/01/17 09:41:45;;;;;;;4.90;3.17;;;;;;;;;;5031469;28;20404;-54
2022/01/17 09:44:11;;;;;;;3.90;3.13;;;;;;;;;;5030627;28;20526;-55
2022/01/17 09:46:42;;;;;;;3.50;3.30;;;;;;;;;;5031026;28;20416;-52
2022/01/17 09:49:15;;;;;;;3.73;3.27;;;;;;;;;;5031014;28;20776;-51
2022/01/17 09:54:35;;;;;;;3.47;3.27;;;;;;;;;;5031700;28;20409;-53
2022/01/17 09:57:06;;;;;;;3.73;3.40;;;;;;;;;;5031479;28;20443;-53
2022/01/17 09:59:32;;;;;;;5.23;4.60;;;;;;;;;;5031589;28;20512;-54
2022/01/17 10:01:58;;;;;;;6.87;3.00;;;;;;;;;;5030127;28;20969;-57
2022/01/17 10:04:24;;;;;;;5.33;3.23;;;;;;;;;;5030960;28;20463;-51
2022/01/17 10:06:54;;;;;;;4.13;3.40;;;;;;;;;;5031017;28;20470;-56
2022/01/17 10:09:24;;;;;;;3.40;3.20;;;;;;;;;;5030764;28;20932;-54
2022/01/17 10:12:00;;;;;;;5.60;3.20;;;;;;;;;;5031289;28;20420;-54
2022/01/17 10:14:27;;;;;;;4.77;3.43;;;;;;;;;;5031409;28;20408;-56
2022/01/17 10:16:53;;;;;;;3.50;3.30;;;;;;;;;;5029830;28;20535;-60
2022/01/17 10:19:21;;;;;;;3.33;3.00;;;;;;;;;;5031092;28;20888;-56
2022/01/17 10:21:53;;;;;;;4.07;3.30;;;;;;;;;;5029752;28;20546;-56
2022/01/17 10:24:32;;;;;;;3.90;3.33;;;;;;;;;;5030276;28;20506;-60
2022/01/17 10:35:12;;;;;;;3.80;3.50;;;;;;;;;;5030733;28;20403;-60
2022/01/17 10:37:38;;;;;;;4.13;3.53;;;;;;;;;;5030108;28;20459;-61
2022/01/17 10:40:06;;;;;;;7.83;3.17;;;;;;;;;;5027650;28;20496;-57
2022/01/17 10:42:34;;;;;;;4.50;3.10;;;;;;;;;;5030865;28;20416;-60
2022/01/17 10:45:11;;;;;;;4.63;3.70;;;;;;;;;;5030619;28;20559;-60
2022/01/17 10:47:39;;;;;;;4.10;3.77;;;;;;;;;;5026300;28;20408;-56
2022/01/17 10:50:25;;;;;;;5.27;3.23;;;;;;;;;;5030239;28;20416;-56
2022/01/17 10:52:52;;;;;;;6.63;3.67;;;;;;;;;;5029921;28;20767;-57
2022/01/17 10:55:20;;;;;;;7.10;3.63;;;;;;;;;;5028627;28;20417;-56
2022/01/17 10:57:48;;;;;;;10.93;3.43;;;;;;;;;;5028858;28;20408;-56
2022/01/17 11:00:19;;;;;;;3.90;3.40;;;;;;;;;;5028337;28;20420;-55
2022/01/17 11:02:47;;;;;;;5.90;3.30;;;;;;;;;;5029854;28;20408;-52
2022/01/17 11:05:14;;;;;;;4.50;3.40;;;;;;;;;;5028436;28;20468;-54
2022/01/17 11:07:44;;;;;;;3.77;3.47;;;;;;;;;;5029633;28;20936;-59
2022/01/17 11:10:17;;;;;;;3.50;3.23;;;;;;;;;;5029581;28;20416;-56
2022/01/17 11:12:43;;;;;;;3.50;3.23;;;;;;;;;;5029750;28;20946;-59
2022/01/17 11:15:11;;;;;;;8.50;3.20;;;;;;;;;;5029518;28;20411;-52
2022/01/17 11:17:39;;;;;;;3.23;2.93;;;;;;;;;;5029909;28;20485;-55
2022/01/17 11:20:07;;;;;;;4.03;3.60;;;;;;;;;;5029450;28;20766;-51
2022/01/17 11:22:37;;;;;;;4.00;3.23;;;;;;;;;;5029018;28;20483;-56
2022/01/17 11:25:06;;;;;;;3.63;3.23;;;;;;;;;;5029391;28;20506;-59
2022/01/17 11:27:32;;;;;;;6.10;3.77;;;;;;;;;;5028958;28;20892;-64
2022/01/17 11:29:58;;;;;;;4.70;3.73;;;;;;;;;;5029992;28;20470;-55
2022/01/17 11:32:25;;;;;;;8.30;4.10;;;;;;;;;;5029790;28;20474;-54
2022/01/17 11:34:52;;;;;;;4.13;3.67;;;;;;;;;;5029634;28;20531;-54
2022/01/17 11:37:18;;;;;;;5.77;3.60;;;;;;;;;;5029517;28;20440;-53
2022/01/17 11:39:51;;;;;;;4.50;4.10;;;;;;;;;;5029617;28;20474;-53
2022/01/17 11:42:29;;;;;;;3.60;3.30;;;;;;;;;;5029839;28;20808;-54
2022/01/17 11:44:55;;;;;;;3.37;3.17;;;;;;;;;;5029259;28;20494;-54
2022/01/17 11:47:40;;;;;;;7.33;3.83;;;;;;;;;;5030166;28;20427;-56
2022/01/17 11:50:25;;;;;;;3.30;3.10;;;;;;;;;;5026939;28;20448;-52
2022/01/17 11:52:51;;;;;;;4.93;3.30;;;;;;;;;;5029240;28;20416;-52
2022/01/17 11:55:35;;;;;;;4.13;3.83;;;;;;;;;;5029293;28;20523;-57
2022/01/17 11:58:21;;;;;;;3.20;3.10;;;;;;;;;;5029331;28;20412;-52
2022/01/17 12:00:47;;;;;;;3.90;3.50;;;;;;;;;;5029163;28;20409;-53
2022/01/17 12:03:20;;;;;;;3.90;3.70;;;;;;;;;;5028886;28;20505;-56
2022/01/17 12:05:46;;;;;;;5.47;3.60;;;;;;;;;;5029108;28;20416;-54
2022/01/17 12:08:23;;;;;;;5.33;4.87;;;;;;;;;;5027336;28;20453;-53
2022/01/17 12:10:53;;;;;;;7.70;5.47;;;;;;;;;;5029043;28;20439;-52
2022/01/17 12:13:24;;;;;;;3.43;3.23;;;;;;;;;;5028958;28;20747;-53
2022/01/17 12:16:14;;;;;;;4.50;4.10;;;;;;;;;;5029239;28;20412;-51
2022/01/17 12:18:43;;;;;;;4.47;3.37;;;;;;;;;;5028814;28;20898;-54
2022/01/17 12:21:21;;;;;;;5.17;4.40;;;;;;;;;;5029306;28;20427;-57
2022/01/17 12:23:47;;;;;;;4.13;3.20;;;;;;;;;;5028777;28;20467;-57
2022/01/17 12:26:27;;;;;;;3.70;3.40;;;;;;;;;;5028823;28;20905;-57
2022/01/17 12:28:54;;;;;;;3.63;3.53;;;;;;;;;;5028955;28;20964;-52
2022/01/17 12:31:39;;;;;;;3.40;3.30;;;;;;;;;;5027636;28;20783;-54
2022/01/17 12:34:25;;;;;;;3.03;2.93;;;;;;;;;;5031353;28;20503;-55
2022/01/17 12:36:52;;;;;;;3.97;3.70;;;;;;;;;;5032522;28;20419;-53
2022/01/17 12:39:21;;;;;;;4.00;3.70;;;;;;;;;;5032003;28;20428;-56
2022/01/17 12:41:49;;;;;;;3.20;3.10;;;;;;;;;;5032358;28;20508;-54
2022/01/17 12:44:17;;;;;;;3.77;3.63;;;;;;;;;;5032431;28;20466;-56
2022/01/17 12:46:51;;;;;;;3.10;3.00;;;;;;;;;;5033330;28;20420;-52
2022/01/17 12:49:17;;;;;;;2.73;2.63;;;;;;;;;;5032429;28;20885;-55
2022/01/17 12:51:44;;;;;;;3.97;3.60;;;;;;;;;;5032430;28;20416;-56
2022/01/17 12:54:15;;;;;;;3.63;3.43;;;;;;;;;;5032458;28;20408;-53
2022/01/17 12:56:45;;;;;;;4.03;3.80;;;;;;;;;;5032243;28;20423;-52
2022/01/17 12:59:12;;;;;;;3.30;3.20;;;;;;;;;;5032529;28;20442;-55
2022/01/17 13:01:48;;;;;;;2.70;2.60;;;;;;;;;;5032640;28;20554;-59
2022/01/17 13:04:16;;;;;;;3.60;3.50;;;;;;;;;;5032384;28;20471;-55
2022/01/17 13:06:43;;;;;;;3.30;3.10;;;;;;;;;;5032611;28;20404;-53
2022/01/17 13:09:14;;;;;;;3.17;3.07;;;;;;;;;;5032093;28;20431;-56
2022/01/17 13:11:42;;;;;;;3.00;2.90;;;;;;;;;;5030717;28;20821;-55
2022/01/17 13:14:08;;;;;;;4.03;3.80;;;;;;;;;;5030823;28;20423;-51
2022/01/17 13:16:35;;;;;;;3.50;3.30;;;;;;;;;;5031846;28;20474;-53
2022/01/17 13:19:03;;;;;;;3.90;3.60;;;;;;;;;;5032122;28;20455;-55
2022/01/17 13:21:29;;;;;;;3.73;3.57;;;;;;;;;;5032052;28;20585;-51
2022/01/17 13:24:00;;;;;;;4.80;3.47;;;;;;;;;;5031216;28;20494;-54
2022/01/17 13:26:37;;;;;;;3.93;3.60;;;;;;;;;;5031904;28;20424;-57
2022/01/17 13:29:07;;;;;;;4.37;4.07;;;;;;;;;;5031865;28;20420;-53
2022/01/17 13:31:34;;;;;;;4.70;4.30;;;;;;;;;;5030461;28;20425;-53
2022/01/17 13:34:12;;;;;;;5.43;4.93;;;;;;;;;;5031465;28;20946;-54
2022/01/17 13:36:40;;;;;;;5.23;4.80;;;;;;;;;;5031710;28;20404;-54
2022/01/17 13:39:09;;;;;;;12.90;5.13;;;;;;;;;;5031523;28;20420;-53
2022/01/17 13:41:36;;;;;;;9.50;4.87;;;;;;;;;;5031678;28;21050;-53
2022/01/17 13:44:02;;;;;;;5.93;5.13;;;;;;;;;;5031209;28;20478;-53
2022/01/17 13:46:28;;;;;;;14.17;5.10;;;;;;;;;;5030584;28;20409;-53
2022/01/17 13:48:54;;;;;;;10.13;4.63;;;;;;;;;;5031298;28;20418;-52
2022/01/17 13:51:24;;;;;;;4.40;4.10;;;;;;;;;;5029835;28;20773;-52
2022/01/17 13:53:53;;;;;;;10.73;4.27;;;;;;;;;;5046501;28;20471;-54
2022/01/17 13:56:19;;;;;;;10.20;4.67;;;;;;;;;;5030953;28;20419;-53
2022/01/17 13:58:46;;;;;;;2.47;2.47;;;;;;;;;;5031390;28;20420;-53
2022/01/17 14:01:15;;;;;;;2.50;2.50;;;;;;;;;;5031538;28;20531;-56
2022/01/17 14:03:43;;;;;;;2.37;2.37;;;;;;;;;;5031148;28;20467;-52
2022/01/17 14:06:10;;;;;;;2.30;2.30;;;;;;;;;;5031204;28;20482;-55
2022/01/17 14:08:49;;;;;;;1.97;1.97;;;;;;;;;;5030941;28;20412;-51
2022/01/17 14:11:16;;;;;;;2.47;2.47;;;;;;;;;;5031743;28;20413;-54
2022/01/17 14:13:42;;;;;;;2.50;2.50;;;;;;;;;;5029593;28;20416;-54
2022/01/17 14:16:16;;;;;;;2.30;2.30;;;;;;;;;;5030489;28;20432;-56
2022/01/17 14:18:43;;;;;;;2.30;2.30;;;;;;;;;;5030397;28;20416;-58
2022/01/17 14:21:20;;;;;;;2.17;2.17;;;;;;;;;;5030148;28;20967;-54
2022/01/17 14:23:45;;;;;;;2.20;2.20;;;;;;;;;;5030914;28;20460;-57
2022/01/17 14:26:24;;;;;;;2.40;2.40;;;;;;;;;;5030657;28;20420;-56
2022/01/17 14:28:50;;;;;;;2.20;2.20;;;;;;;;;;5030984;28;20428;-53
2022/01/17 14:31:16;;;;;;;2.00;2.00;;;;;;;;;;5031055;28;20400;-53
2022/01/17 14:33:47;;;;;;;2.50;2.50;;;;;;;;;;5030493;28;20397;-55
2022/01/17 14:36:14;;;;;;;2.30;2.30;;;;;;;;;;5030170;28;20531;-51
2022/01/17 14:38:49;;;;;;;2.50;2.50;;;;;;;;;;5030469;28;20480;-53
2022/01/17 14:41:20;;;;;;;2.50;2.50;;;;;;;;;;5030401;28;20412;-51
2022/01/17 14:43:47;;;;;;;2.30;2.30;;;;;;;;;;5030073;28;20451;-52
2022/01/17 14:46:13;;;;;;;2.30;2.30;;;;;;;;;;5029157;28;20424;-57
2022/01/17 14:48:41;;;;;;;2.20;2.20;;;;;;;;;;5028761;28;20413;-57
2022/01/17 14:51:26;;;;;;;4.23;4.03;;;;;;;;;;5028700;28;20763;-51
2022/01/17 14:53:57;;;;;;;2.47;2.47;;;;;;;;;;5028846;28;20417;-60
2022/01/17 15:02:08;;;;;;;2.20;2.20;;;;;;;;;;5030008;28;20411;-54
2022/01/17 15:04:38;;;;;;;2.40;2.40;;;;;;;;;;5028621;28;20991;-50
2022/01/17 15:07:05;;;;;;;2.40;2.40;;;;;;;;;;5029979;28;20836;-53
2022/01/17 15:09:31;;;;;;;1.93;1.93;;;;;;;;;;5028831;28;20503;-54
2022/01/17 15:11:57;;;;;;;8.73;3.57;;;;;;;;;;5030026;28;20435;-53
2022/01/17 15:14:23;;;;;;;8.60;3.57;;;;;;;;;;5030169;28;20818;-53